Calhoun, GA (30701)

05:23 PM EDT del 27 Agosto 2015 (GMT -0400)
The Villages of Calhoun | | Change Station
CLOSE
Current Station
Stazione meteo personale
Location: Calhoun, GA
Altitudine: 676 ft
Stazioni meteo nelle vicinanze

Alt. 676 ft 34.50 °N, 84.93 °W | Updated 8 minutes ago

Parzialmente nuvoloso
Parzialmente nuvoloso
86.7 °F
Sembra 91 °F
N
1.0
Vento Variabile Vento da NNO
Gusts 2.0 mph

Oggi
Massima -- | Minima -- °F
--% Possibilità di precip.
Ieri
Massima -- | Minima -- °F
Precip. -- in
7:09 AM 8:12 PM
Gobba a ponente, 95% visible
Pressione 30.02 in
Visibilità 10.0 miglia
Nuvole Sereno
Indice di calore 91 °F
Punto di rugiada 69 °F
Umidità 55%
Piovosità 0.00 in
Spessore del manto nevoso Non disponibile.
Raggi UV 4 fuori da 12
Polline 8.80 fuori da 12
Qualità dell'aria Non disponibile.
Flu Activity Non disponibile.
METAR KDNN 272115Z AUTO 02004KT 10SM CLR 27/18 A3002 RMK AO2
Pressione 30.02 in
Visibilità 10.0 miglia
Nuvole Sereno
Indice di calore 91 °F
Punto di rugiada 69 °F
Umidità 55%
Piovosità 0.00 in
Spessore del manto nevoso Non disponibile.
Raggi UV 4 fuori da 12
Polline 8.80 fuori da 12
Qualità dell'aria Non disponibile.
Flu Activity Non disponibile.
METAR KDNN 272115Z AUTO 02004KT 10SM CLR 27/18 A3002 RMK AO2

10-Day Weather Forecast

×

Almanac

Astronomia

Aug. 27, 2015 Alba Tramonto
Ora attuale
Crepuscolo civile
Crepuscolo nautico
Crepuscolo astronomico
Luna
Estensione della luce visibile
Lunghezza del giorno
Tomorrow will be .
, % of the Moon is Illuminated

Gli estremi di oggi

State Highs State Lows

Community

WunderPhotos

Upload Photos

1,850,235 foto caricate!

WunderBlogs® & News

Nearby

Qualità dell'aria

  Qualità dell'aria Indice AQ Inquinante
Not available.

Profondità neve

Stazione Profondità Altitudine

Attività sismica

Città  Distanza Mag. Data & Ora
Minimo Magnitudo Mostrato è 2.5.

Temperature delle acque costiere

Località Temperatura

Stations

Stazioni meteo nelle vicinanze

Ubicazione della stazione Temp. Raffreddamento del vento Punto di rugiada Umidità Vento Precip. Alt. Aggiornato Tipo